ADDS METAR Data INFO
IDs: Format: Raw Decoded Include TAF

Data at: 0400 UTC 11 Dec 2017

KROX 110355Z AUTO 16008KT 1 1/2SM -SN OVC005 M06/M08 A2980 RMK AO2
KROX 110335Z AUTO 16008KT 1 1/2SM -SN OVC005 M06/M09 A2981 RMK AO2
KROX 110315Z AUTO 16008KT 3SM -SN OVC014 M07/M09 A2982 RMK AO2
KROX 110255Z AUTO 17008KT 2 1/2SM -SN BKN012 BKN020 OVC044 M07/M09 A2984 RMK AO2
KROX 110235Z AUTO 17008KT 10SM SCT030 BKN045 BKN060 M07/M09 A2986 RMK AO2
KROX 110215Z AUTO 17007KT 10SM BKN032 BKN080 M07/M09 A2988 RMK AO2
KROX 110155Z AUTO 19007KT 10SM SCT012 SCT032 OVC080 M07/M09 A2990 RMK AO2
KROX 110135Z AUTO 21008KT 10SM SCT014 OVC080 M07/M09 A2992 RMK AO2
KROX 110115Z AUTO 20008KT 10SM BKN012 OVC080 M08/M11 A2992 RMK AO2
KROX 110055Z AUTO 20005KT 10SM OVC012 M08/M11 A2993 RMK AO2
KROX 110035Z AUTO 16004KT 10SM BKN014 M09/M12 A2992 RMK AO2
KROX 110015Z AUTO 19004KT 10SM CLR M10/M12 A2994 RMK AO2
KROX 102355Z AUTO 16005KT 10SM CLR M10/M12 A2995 RMK AO2
KROX 102335Z AUTO 18005KT 10SM CLR M10/M12 A2996 RMK AO2
KROX 102315Z AUTO 16003KT 10SM CLR M09/M12 A2997 RMK AO2
KROX 102255Z AUTO 18003KT 10SM CLR M09/M11 A2997 RMK AO2
KROX 102235Z AUTO 18004KT 10SM CLR M08/M11 A2999 RMK AO2
KROX 102215Z AUTO 20003KT 10SM CLR M08/M10 A2999 RMK AO2
KROX 102155Z AUTO 00000KT 10SM CLR M07/M10 A3000 RMK AO2
KROX 102135Z AUTO 20003KT 10SM CLR M07/M10 A3000 RMK AO2
KROX 102115Z AUTO 21005KT 10SM SCT014 M06/M09 A3000 RMK AO2
KROX 102055Z AUTO 21005KT 10SM SCT014 M06/M09 A3000 RMK AO2
KROX 102035Z AUTO 00000KT 10SM CLR M06/M09 A3000 RMK AO2
KROX 102015Z AUTO 28003KT 10SM CLR M06/M09 A3001 RMK AO2
KROX 101955Z AUTO 32003KT 10SM SCT012 M06/M09 A3001 RMK AO2
KROX 101935Z AUTO 25003KT 10SM SCT012 M06/M09 A3000 RMK AO2
KROX 101915Z AUTO 22004KT 10SM SCT012 M06/M09 A3001 RMK AO2
KROX 101855Z AUTO 00000KT 10SM CLR M06/M09 A3001 RMK AO2
KROX 101835Z AUTO 23004KT 10SM CLR M06/M09 A3001 RMK AO2
KROX 101815Z AUTO 00000KT 10SM SCT012 M07/M09 A3002 RMK AO2
KROX 101755Z AUTO 00000KT 10SM BKN012 BKN075 M06/M09 A3002 RMK AO2
KROX 101735Z AUTO 00000KT 10SM SCT012 BKN075 M06/M09 A3001 RMK AO2
KROX 101715Z AUTO 00000KT 10SM BKN075 BKN090 M07/M09 A3001 RMK AO2
KROX 101655Z AUTO 00000KT 10SM SCT075 BKN090 M07/M09 A3002 RMK AO2
KROX 101635Z AUTO 02003KT 10SM SCT075 BKN090 M07/M09 A3002 RMK AO2
KROX 101615Z AUTO 00000KT 7SM -SN SCT085 M07/M09 A3002 RMK AO2
KROX 101555Z AUTO 02004KT 10SM -SN SCT085 M07/M09 A3001 RMK AO2
KROX 101535Z AUTO 02005KT 10SM SCT012 M07/M09 A3001 RMK AO2
KROX 101515Z AUTO 36005KT 7SM -SN OVC012 M07/M09 A3001 RMK AO2
KROX 101455Z AUTO 35004KT 10SM OVC012 M07/M09 A3001 RMK AO2
KROX 101435Z AUTO 34005KT 10SM OVC012 M07/M09 A3001 RMK AO2
KROX 101415Z AUTO 32005KT 10SM OVC012 M07/M09 A2999 RMK AO2
KROX 101355Z AUTO 32007KT 10SM OVC012 M07/M09 A2999 RMK AO2
KROX 101335Z AUTO 32005KT 10SM OVC012 M07/M09 A2998 RMK AO2
KROX 101315Z AUTO 35005KT 10SM OVC012 M07/M09 A2998 RMK AO2
KROX 101255Z AUTO 35007KT 10SM OVC012 M07/M09 A2999 RMK AO2
KROX 101235Z AUTO 33005KT 10SM OVC012 M07/M09 A2997 RMK AO2
KROX 101215Z AUTO 35005KT 10SM OVC012 M07/M09 A2996 RMK AO2
KROX 101155Z AUTO 35005KT 10SM OVC014 M07/M09 A2997 RMK AO2
KROX 101135Z AUTO 34005KT 10SM OVC014 M07/M09 A2995 RMK AO2
KROX 101115Z AUTO 01006KT 10SM OVC014 M07/M09 A2994 RMK AO2
KROX 101055Z AUTO 36006KT 10SM OVC014 M07/M09 A2994 RMK AO2
KROX 101035Z AUTO 35007KT 10SM OVC014 M07/M09 A2993 RMK AO2
KROX 101015Z AUTO 36007KT 10SM OVC014 M07/M09 A2992 RMK AO2
KROX 100955Z AUTO 01007KT 10SM OVC014 M07/M09 A2993 RMK AO2
KROX 100935Z AUTO 01006KT 10SM OVC014 M06/M09 A2993 RMK AO2
KROX 100915Z AUTO 02009KT 10SM OVC014 M06/M09 A2992 RMK AO2
KROX 100855Z AUTO 02010KT 10SM OVC014 M06/M09 A2991 RMK AO2
KROX 100835Z AUTO 32008KT 10SM OVC014 M06/M09 A2990 RMK AO2
KROX 100815Z AUTO 32007KT 10SM OVC016 M07/M09 A2989 RMK AO2
KROX 100755Z AUTO 33007KT 10SM OVC016 M07/M09 A2988 RMK AO2
KROX 100735Z AUTO 32006KT 10SM OVC016 M07/M09 A2986 RMK AO2
KROX 100715Z AUTO 34005KT 10SM OVC016 M07/M09 A2985 RMK AO2
KROX 100655Z AUTO 33005KT 10SM OVC018 M07/M09 A2984 RMK AO2
KROX 100635Z AUTO 33004KT 10SM OVC018 M07/M09 A2983 RMK AO2
KROX 100615Z AUTO 32003KT 10SM OVC020 M07/M09 A2982 RMK AO2
KROX 100555Z AUTO 32005KT 10SM OVC020 M07/M09 A2981 RMK AO2
KROX 100535Z AUTO 34004KT 10SM OVC020 M08/M10 A2981 RMK AO2
KROX 100515Z AUTO 33003KT 10SM OVC020 M08/M11 A2980 RMK AO2
KROX 100455Z AUTO 00000KT 10SM OVC022 M08/M11 A2979 RMK AO2
KROX 100435Z AUTO 00000KT 10SM OVC022 M09/M11 A2977 RMK AO2
KROX 100415Z AUTO 00000KT 10SM OVC024 M09/M11 A2975 RMK AO2
KROX 100355Z AUTO 00000KT 10SM BKN024 M09/M12 A2974 RMK AO2
KROX 100335Z AUTO 07003KT 10SM SCT026 M09/M12 A2975 RMK AO2
KROX 100315Z AUTO 12004KT 10SM CLR M08/M11 A2974 RMK AO2
KROX 100255Z AUTO 11003KT 10SM CLR M09/M12 A2974 RMK AO2
KROX 100235Z AUTO 10003KT 10SM CLR M09/M12 A2974 RMK AO2
KROX 100215Z AUTO 14003KT 10SM CLR M09/M11 A2975 RMK AO2
KROX 100155Z AUTO 16005KT 10SM CLR M08/M10 A2975 RMK AO2
KROX 100135Z AUTO 16003KT 10SM CLR M07/M09 A2976 RMK AO2
KROX 100115Z AUTO 17003KT 10SM SCT015 BKN024 M06/M09 A2975 RMK AO2
KROX 100055Z AUTO 19007KT 10SM BKN015 OVC024 M06/M09 A2975 RMK AO2
KROX 100035Z AUTO 18008KT 10SM OVC015 M06/M09 A2975 RMK AO2
KROX 100015Z AUTO 18008KT 10SM OVC015 M06/M09 A2977 RMK AO2
KROX 092355Z AUTO 20009KT 10SM OVC017 M07/M09 A2976 RMK AO2
KROX 092335Z AUTO 20012KT 10SM OVC017 M07/M09 A2977 RMK AO2
KROX 092315Z AUTO 20010KT 10SM OVC017 M07/M09 A2979 RMK AO2
KROX 092255Z AUTO 20011KT 10SM BKN017 M07/M10 A2981 RMK AO2
KROX 092235Z AUTO 18013KT 10SM CLR M07/M10 A2980 RMK AO2
KROX 092215Z AUTO 18014KT 10SM SCT018 SCT090 M07/M10 A2980 RMK AO2
KROX 092155Z AUTO 18013KT 10SM BKN018 M07/M10 A2982 RMK AO2
KROX 092135Z AUTO 18011KT 10SM SCT015 BKN021 M07/M10 A2985 RMK AO2
KROX 092115Z AUTO 19009KT 10SM BKN018 BKN110 M07/M10 A2986 RMK AO2
KROX 092055Z AUTO 20011G20KT 10SM SCT110 M07/M11 A2985 RMK AO2
KROX 092035Z AUTO 20017KT 10SM CLR M08/M11 A2984 RMK AO2
KROX 092015Z AUTO 19012KT 10SM SCT017 M08/M11 A2987 RMK AO2
KROX 091955Z AUTO 18011KT 10SM SCT017 M08/M11 A2990 RMK AO2
KROX 091935Z AUTO 19010KT 10SM SCT015 M08/M11 A2992 RMK AO2
KROX 091916Z AUTO 20008KT 10SM OVC015 M08/M12 A2995 RMK AO2
KROX 091855Z AUTO 20007KT 10SM OVC015 M08/M12 A2997 RMK AO2
KROX 091835Z AUTO 21009KT 10SM OVC019 M09/M12 A2999 RMK AO2
KROX 091816Z AUTO 22009KT 10SM OVC019 M09/M12 A3000 RMK AO2
KROX 091755Z AUTO 22010KT 10SM BKN019 M09/M12 A3001 RMK AO2
KROX 091735Z AUTO 22010KT 10SM CLR M09/M12 A3002 RMK AO2
KROX 091716Z AUTO 22007KT 10SM SCT075 M10/M13 A3004 RMK AO2
KROX 091655Z AUTO 23006KT 10SM OVC075 M10/M13 A3006 RMK AO2
KROX 091635Z AUTO 23007KT 10SM BKN085 M10/M13 A3005 RMK AO2
KROX 091615Z AUTO 23007KT 10SM CLR M11/M13 A3007 RMK AO2